Time;durP1;ratioP1;P1;durP2;ratioP2;P2;SDS_P1;SDS_P2;PMS_P1;PMS_P2;Temp;Humidity;BMP_temperature;BMP_pressure;BME280_temperature;BME280_humidity;BME280_pressure;Samples;Min_cycle;Max_cycle;Signal;HPM_P1;HPM_P2
2022/01/20 00:00:16;;;;;;;13.65;2.45;;;;;;;2.97;93.98;100961.75;4917273;29;20056;-77
2022/01/20 00:02:42;;;;;;;9.30;2.25;;;;;;;2.98;94.07;100950.13;4916112;29;20431;-77
2022/01/20 00:26:30;;;;;;;6.47;1.93;;;;;;;2.85;94.41;100957.56;4916883;29;20036;-77
2022/01/20 00:28:59;;;;;;;9.85;1.60;;;;;;;2.85;94.36;100964.72;4916986;29;20739;-76
2022/01/20 00:31:36;;;;;;;10.98;2.05;;;;;;;2.84;94.58;100963.03;4916970;29;20044;-77
2022/01/20 00:34:18;;;;;;;13.88;3.33;;;;;;;2.81;94.25;100966.81;4916834;29;20413;-77
2022/01/20 00:39:28;;;;;;;7.18;2.22;;;;;;;2.85;94.32;100960.25;4916726;29;20042;-76
2022/01/20 00:41:55;;;;;;;10.32;2.13;;;;;;;2.78;93.98;100956.44;4916434;29;20256;-77
2022/01/20 00:44:21;;;;;;;10.20;3.30;;;;;;;2.77;94.32;100968.06;4916632;29;20128;-77
2022/01/20 00:46:46;;;;;;;;;;;;;;;2.76;94.21;100967.22;4916645;29;20123;-77
2022/01/20 00:49:12;;;;;;;7.53;1.92;;;;;;;2.76;94.25;100971.72;4917188;29;19954;-76
2022/01/20 00:51:37;;;;;;;7.03;1.55;;;;;;;2.78;94.50;100967.09;4919804;29;20039;-77
2022/01/20 00:54:03;;;;;;;11.80;2.15;;;;;;;2.76;94.22;100972.56;4919711;29;20539;-77
2022/01/20 00:56:28;;;;;;;13.35;3.08;;;;;;;2.75;94.53;100978.03;4918499;29;20027;-76
2022/01/20 00:58:53;;;;;;;10.75;1.52;;;;;;;2.77;94.25;100962.75;4919403;29;20060;-76
2022/01/20 01:01:19;;;;;;;10.53;2.23;;;;;;;2.78;94.70;100975.91;4919801;29;20040;-76
2022/01/20 01:03:44;;;;;;;11.13;2.53;;;;;;;2.77;94.56;100979.56;4919716;29;20736;-76
2022/01/20 01:08:35;;;;;;;8.73;1.80;;;;;;;2.78;94.30;100975.06;4919703;29;20067;-76
2022/01/20 01:11:00;;;;;;;19.55;2.70;;;;;;;2.82;94.58;100972.97;4920082;29;20420;-76
2022/01/20 01:13:27;;;;;;;12.02;2.67;;;;;;;2.82;94.18;100970.31;4919427;29;20047;-76
2022/01/20 01:15:53;;;;;;;11.77;2.55;;;;;;;2.85;94.01;100960.25;4919321;29;20483;-77
2022/01/20 01:23:36;;;;;;;5.55;1.58;;;;;;;2.85;94.26;100965.56;4919056;29;20024;-76
2022/01/20 01:26:04;;;;;;;8.98;2.25;;;;;;;2.86;94.52;100956.59;4919197;29;20051;-77
2022/01/20 01:28:31;;;;;;;18.13;3.13;;;;;;;2.85;93.89;100960.25;4918087;29;20467;-76
2022/01/20 01:33:52;;;;;;;12.23;2.47;;;;;;;2.84;93.61;100955.91;4919280;29;20108;-76
2022/01/20 01:36:22;;;;;;;10.93;2.47;;;;;;;2.84;93.53;100963.03;4918846;29;20028;-76
2022/01/20 01:38:48;;;;;;;20.45;2.42;;;;;;;2.78;93.26;100973.25;4918891;29;20134;-76
2022/01/20 01:41:18;;;;;;;11.95;2.58;;;;;;;2.78;93.37;100975.91;4918818;29;20435;-76
2022/01/20 01:43:47;;;;;;;7.93;1.80;;;;;;;2.79;93.66;100979.44;4918945;29;20040;-76
2022/01/20 01:46:14;;;;;;;13.40;2.90;;;;;;;2.83;93.46;100980.81;4918960;29;20031;-76
2022/01/20 01:48:41;;;;;;;11.00;1.83;;;;;;;2.81;93.21;100969.47;4919075;29;20028;-78
2022/01/20 01:51:07;;;;;;;16.83;3.47;;;;;;;2.79;93.33;100977.59;4918768;29;20459;-76
2022/01/20 01:53:33;;;;;;;17.00;3.10;;;;;;;2.79;93.37;100972.28;4918893;29;20032;-76
2022/01/20 01:55:59;;;;;;;17.30;2.30;;;;;;;2.80;93.25;100973.13;4918947;29;20058;-76
2022/01/20 01:58:25;;;;;;;20.92;2.70;;;;;;;2.82;93.17;100979.16;4919203;29;20052;-77
2022/01/20 02:00:51;;;;;;;8.90;2.38;;;;;;;2.83;93.26;100975.50;4917812;29;20036;-77
2022/01/20 02:03:16;;;;;;;;;;;;;;;2.84;92.63;100969.19;4919665;29;20364;-76
2022/01/20 02:08:41;;;;;;;16.83;1.92;;;;;;;2.86;92.05;100977.88;4908941;29;20080;-76
2022/01/20 02:19:20;;;;;;;11.20;1.42;;;;;;;2.85;91.88;100976.22;4918376;29;20075;-77
2022/01/20 02:21:55;;;;;;;7.15;1.90;;;;;;;2.81;92.14;100972.13;4917050;29;20444;-76
2022/01/20 02:24:21;;;;;;;7.93;1.90;;;;;;;2.76;92.18;100961.06;4917967;29;20036;-76
2022/01/20 02:26:47;;;;;;;7.45;1.38;;;;;;;2.78;91.72;100964.44;4917020;29;20036;-76
2022/01/20 02:29:12;;;;;;;;;;;;;;;2.79;91.95;100971.44;4918609;29;20032;-78
2022/01/20 02:31:39;;;;;;;5.63;1.13;;;;;;;2.78;91.97;100972.41;4918437;29;19918;-76
2022/01/20 02:34:04;;;;;;;;;;;;;;;2.78;91.80;100972.41;4918710;29;20055;-76
2022/01/20 02:36:31;;;;;;;8.60;1.80;;;;;;;2.79;91.96;100971.44;4917846;29;19911;-77
2022/01/20 02:39:07;;;;;;;12.48;1.17;;;;;;;2.80;92.06;100970.47;4918347;29;20467;-78
2022/01/20 02:47:10;;;;;;;2.30;0.63;;;;;;;2.76;91.75;100959.25;4918195;29;20043;-77
2022/01/20 02:49:35;;;;;;;7.00;1.85;;;;;;;2.77;91.66;100962.75;4917968;29;20036;-77
2022/01/20 02:52:01;;;;;;;16.30;4.30;;;;;;;2.73;91.75;100964.84;4918024;29;20058;-77
2022/01/20 02:54:26;;;;;;;5.70;1.38;;;;;;;2.74;91.44;100968.34;4918231;29;20035;-77
2022/01/20 02:56:52;;;;;;;6.97;1.27;;;;;;;2.75;91.91;100957.56;4917450;29;20383;-77
2022/01/20 02:59:17;;;;;;;8.32;2.30;;;;;;;2.83;91.88;100962.19;4917812;29;20125;-77
2022/01/20 03:01:43;;;;;;;10.43;1.65;;;;;;;2.79;91.81;100956.31;4918351;29;20047;-78
2022/01/20 03:04:09;;;;;;;5.38;1.63;;;;;;;2.79;91.76;100966.97;4918007;29;20451;-79
2022/01/20 03:06:35;;;;;;;10.25;1.83;;;;;;;2.76;91.59;100969.91;4918142;29;20111;-78
2022/01/20 03:09:00;;;;;;;7.70;1.30;;;;;;;2.73;91.32;100966.66;4918264;29;20091;-77
2022/01/20 03:11:26;;;;;;;4.25;1.58;;;;;;;2.81;91.48;100958.84;4918192;29;20088;-77
2022/01/20 03:13:51;;;;;;;12.98;1.30;;;;;;;2.76;91.06;100969.91;4917876;29;20040;-77
2022/01/20 03:16:16;;;;;;;6.23;1.93;;;;;;;2.81;91.21;100958.84;4918103;29;20036;-78
2022/01/20 03:18:42;;;;;;;9.07;1.60;;;;;;;2.78;90.94;100965.28;4918041;29;20259;-77
2022/01/20 03:21:07;;;;;;;8.33;2.87;;;;;;;2.82;90.84;100968.50;4918392;29;20303;-78
2022/01/20 03:23:32;;;;;;;12.23;2.78;;;;;;;2.99;90.22;100950.97;4919243;29;20279;-77
2022/01/20 03:25:58;;;;;;;13.97;1.90;;;;;;;2.81;89.72;100958.84;4919316;29;20048;-78
2022/01/20 03:28:23;;;;;;;11.77;2.53;;;;;;;2.78;90.24;100969.75;4918259;29;20064;-76
2022/01/20 03:30:49;;;;;;;5.88;1.90;;;;;;;2.80;90.59;100965.13;4918144;29;20032;-77
2022/01/20 03:33:15;;;;;;;6.07;1.42;;;;;;;2.78;89.65;100975.06;4917541;29;20042;-77
2022/01/20 03:35:41;;;;;;;6.68;1.42;;;;;;;2.79;90.13;100974.09;4917263;29;20036;-77
2022/01/20 03:38:07;;;;;;;3.15;1.33;;;;;;;2.80;90.66;100965.13;4917894;29;20043;-78
2022/01/20 03:40:32;;;;;;;3.92;1.30;;;;;;;2.78;90.20;100953.78;4917926;29;20586;-78
2022/01/20 03:42:58;;;;;;;8.75;1.73;;;;;;;2.76;90.30;100947.75;4917955;29;20036;-77
2022/01/20 03:45:26;;;;;;;11.03;2.03;;;;;;;2.85;90.50;100936.28;4917518;29;20067;-77
2022/01/20 03:47:54;;;;;;;4.28;0.93;;;;;;;2.83;90.16;100938.25;4916511;29;20272;-78
2022/01/20 03:53:05;;;;;;;5.15;1.25;;;;;;;2.71;90.04;100926.91;4926075;29;20035;-78
2022/01/20 03:55:30;;;;;;;10.82;1.92;;;;;;;2.78;90.22;100922.69;4918534;29;20016;-78
2022/01/20 03:57:56;;;;;;;10.17;2.10;;;;;;;2.77;90.51;100929.00;4918045;29;20090;-78
2022/01/20 04:00:21;;;;;;;6.77;1.53;;;;;;;2.69;90.18;100933.34;4918094;29;20257;-78
2022/01/20 04:02:46;;;;;;;5.97;1.70;;;;;;;2.63;90.43;100934.75;4917225;29;20320;-78
2022/01/20 04:05:12;;;;;;;9.55;1.70;;;;;;;2.60;90.30;100935.03;4917382;29;20028;-77
2022/01/20 04:07:37;;;;;;;8.43;1.43;;;;;;;2.61;90.03;100939.38;4917792;29;20036;-77
2022/01/20 04:10:04;;;;;;;4.57;1.25;;;;;;;2.66;89.66;100946.94;4916131;29;20027;-77
2022/01/20 04:12:29;;;;;;;11.35;2.08;;;;;;;2.66;90.18;100949.63;4917681;29;20096;-78
2022/01/20 04:14:55;;;;;;;6.27;1.07;;;;;;;2.68;90.16;100943.16;4917364;29;20032;-78
2022/01/20 04:17:21;;;;;;;4.65;1.23;;;;;;;2.66;89.71;100944.28;4917272;29;20275;-78
2022/01/20 04:19:46;;;;;;;4.22;1.10;;;;;;;2.74;89.69;100939.94;4917068;29;20036;-78
2022/01/20 04:22:12;;;;;;;4.60;1.30;;;;;;;2.69;89.70;100946.63;4917546;29;20036;-78
2022/01/20 04:24:38;;;;;;;14.38;3.25;;;;;;;2.70;89.93;100930.53;4918247;29;20036;-77
2022/01/20 04:27:04;;;;;;;3.95;0.82;;;;;;;2.70;89.65;100937.69;4920805;29;20114;-77
2022/01/20 04:29:29;;;;;;;;;;;;;;;2.69;89.68;100950.13;4920935;29;20127;-77
2022/01/20 04:31:55;;;;;;;2.92;0.80;;;;;;;2.71;89.82;100942.88;4921003;29;20009;-78
2022/01/20 04:34:21;;;;;;;6.68;1.35;;;;;;;2.73;90.04;100940.06;4920876;29;20036;-77
2022/01/20 04:36:49;;;;;;;4.72;1.42;;;;;;;2.73;89.66;100948.03;4921167;29;20111;-78
2022/01/20 04:39:18;;;;;;;8.68;1.40;;;;;;;2.75;89.34;100932.78;4920723;29;20132;-77
2022/01/20 04:41:44;;;;;;;7.63;2.25;;;;;;;2.73;89.85;100930.25;4921062;29;20032;-77
2022/01/20 04:44:17;;;;;;;8.52;1.40;;;;;;;2.76;89.65;100937.13;4920658;29;20028;-77
2022/01/20 04:46:56;;;;;;;13.30;2.03;;;;;;;2.86;89.20;100945.94;4920486;29;20099;-78
2022/01/20 04:57:34;;;;;;;9.65;2.08;;;;;;;2.78;89.55;100951.13;4920148;29;20063;-78
2022/01/20 05:00:00;;;;;;;8.43;1.52;;;;;;;2.83;89.34;100951.56;4920516;29;20032;-76
2022/01/20 05:02:28;;;;;;;9.80;1.63;;;;;;;2.81;89.89;100971.31;4919210;29;20047;-77
2022/01/20 05:04:53;;;;;;;6.55;1.35;;;;;;;2.74;90.49;100973.69;4920219;29;20276;-79
2022/01/20 05:07:23;;;;;;;6.60;1.40;;;;;;;2.73;90.67;100967.50;4919984;29;20483;-77
2022/01/20 05:09:48;;;;;;;6.40;1.50;;;;;;;2.73;90.73;100956.03;4920492;29;20032;-77
2022/01/20 05:12:19;;;;;;;12.18;2.40;;;;;;;2.68;90.94;100969.78;4920536;29;20095;-77
2022/01/20 05:14:44;;;;;;;9.57;2.13;;;;;;;2.64;91.31;100963.06;4919693;29;20048;-77
2022/01/20 05:17:09;;;;;;;9.63;2.27;;;;;;;2.66;90.85;100973.56;4919975;29;20529;-77
2022/01/20 05:19:35;;;;;;;18.23;2.73;;;;;;;2.64;91.17;100975.50;4918009;29;20297;-77
2022/01/20 05:22:01;;;;;;;4.43;1.42;;;;;;;2.63;90.81;100987.97;4919741;29;20268;-76
2022/01/20 05:24:26;;;;;;;11.77;2.83;;;;;;;2.66;91.46;100989.53;4919111;29;20036;-77
2022/01/20 05:26:54;;;;;;;6.65;1.88;;;;;;;2.66;91.72;100986.84;4920084;29;20032;-78
2022/01/20 05:29:20;;;;;;;6.53;1.27;;;;;;;2.66;91.56;100984.19;4919352;29;20471;-77
2022/01/20 05:31:46;;;;;;;7.07;2.28;;;;;;;2.66;91.81;100992.19;4919424;29;20047;-78
2022/01/20 05:34:12;;;;;;;7.82;1.52;;;;;;;2.52;92.13;100992.56;4919359;29;20032;-77
2022/01/20 05:36:38;;;;;;;4.50;1.13;;;;;;;2.40;92.34;100992.72;4918652;29;20044;-77
2022/01/20 05:39:05;;;;;;;4.13;1.70;;;;;;;2.34;93.09;101005.72;4919162;29;20036;-75
2022/01/20 05:41:31;;;;;;;5.22;1.58;;;;;;;2.32;93.55;101016.50;4917419;29;20033;-75
2022/01/20 05:43:56;;;;;;;;;;;;;;;2.23;93.70;101029.78;4919159;29;20055;-75
2022/01/20 05:46:24;;;;;;;4.38;1.70;;;;;;;2.30;94.20;101033.56;4918767;29;20274;-75
2022/01/20 05:48:49;;;;;;;5.90;1.42;;;;;;;2.20;92.88;101020.25;4918904;29;20036;-75
2022/01/20 05:51:15;;;;;;;6.45;0.75;;;;;;;2.09;92.16;101021.22;4918738;29;20136;-75
2022/01/20 05:53:41;;;;;;;;;;;;;;;2.09;92.11;101031.00;4919236;29;20391;-75
2022/01/20 05:56:07;;;;;;;3.25;0.68;;;;;;;2.04;91.68;101043.84;4918402;29;19915;-75
2022/01/20 05:58:36;;;;;;;2.78;0.77;;;;;;;2.03;92.22;101032.38;4918393;29;20620;-75
2022/01/20 06:01:06;;;;;;;2.83;0.60;;;;;;;2.04;92.45;101041.19;4917289;29;20101;-75
2022/01/20 06:03:36;;;;;;;9.88;2.65;;;;;;;2.06;92.60;101041.91;4918564;29;20431;-75
2022/01/20 06:06:01;;;;;;;3.45;1.45;;;;;;;2.05;92.29;101046.38;4918253;29;20448;-75
2022/01/20 06:08:27;;;;;;;8.23;1.30;;;;;;;2.05;92.85;101046.38;4918554;29;20079;-75
2022/01/20 06:10:52;;;;;;;8.52;0.82;;;;;;;2.11;93.57;101050.31;4918386;29;20468;-75
2022/01/20 06:13:18;;;;;;;4.47;1.35;;;;;;;2.11;93.03;101041.50;4918173;29;20046;-75
2022/01/20 06:15:44;;;;;;;4.28;1.15;;;;;;;2.09;93.19;101045.13;4918048;29;20147;-76
2022/01/20 06:18:09;;;;;;;7.10;1.60;;;;;;;2.07;93.26;101044.41;4918158;29;20024;-75
2022/01/20 06:20:36;;;;;;;4.60;1.30;;;;;;;2.08;92.78;101046.09;4917752;29;20062;-75
2022/01/20 06:23:05;;;;;;;1.35;0.50;;;;;;;2.09;93.23;101044.28;4917953;29;20464;-75
2022/01/20 06:25:30;;;;;;;7.22;0.95;;;;;;;2.08;92.39;101053.25;4916882;29;20100;-75
2022/01/20 06:27:56;;;;;;;6.38;1.35;;;;;;;2.05;92.45;101056.16;4916868;29;20032;-75
2022/01/20 06:30:21;;;;;;;6.93;0.83;;;;;;;2.02;92.08;101059.06;4918531;29;20056;-75
2022/01/20 06:32:47;;;;;;;10.82;1.67;;;;;;;1.98;92.18;101063.81;4918216;29;20648;-76
2022/01/20 06:35:12;;;;;;;5.53;1.15;;;;;;;2.01;91.79;101082.16;4917952;29;20040;-75
2022/01/20 06:37:38;;;;;;;5.88;1.23;;;;;;;1.95;91.25;101079.22;4917720;29;20369;-76
2022/01/20 06:40:04;;;;;;;5.80;1.50;;;;;;;1.95;91.02;101093.34;4918154;29;20028;-75
2022/01/20 06:42:31;;;;;;;5.50;1.20;;;;;;;1.97;90.71;101101.19;4916295;29;20272;-76
2022/01/20 06:44:56;;;;;;;3.65;0.93;;;;;;;1.97;90.52;101099.34;4917979;29;20029;-75
2022/01/20 06:47:21;;;;;;;3.70;0.87;;;;;;;1.96;90.07;101107.47;4917481;29;20063;-76
2022/01/20 06:49:47;;;;;;;3.20;0.57;;;;;;;1.96;90.47;101105.66;4917848;29;20332;-76
2022/01/20 06:52:12;;;;;;;7.28;1.58;;;;;;;1.96;90.35;101116.28;4917930;29;20036;-75
2022/01/20 06:54:38;;;;;;;4.88;1.10;;;;;;;1.96;90.73;101121.59;4917813;29;20047;-75
2022/01/20 06:57:04;;;;;;;4.78;0.82;;;;;;;1.97;90.05;101130.44;4917523;29;20056;-75
2022/01/20 06:59:30;;;;;;;3.72;0.80;;;;;;;1.93;89.87;101137.81;4917749;29;20043;-76
2022/01/20 07:01:56;;;;;;;3.00;0.90;;;;;;;1.92;90.13;101135.28;4916683;29;20032;-76
2022/01/20 07:04:22;;;;;;;8.55;0.70;;;;;;;1.93;89.98;101144.94;4917430;29;20028;-76
2022/01/20 07:06:48;;;;;;;6.15;1.65;;;;;;;1.90;89.82;101156.66;4917589;29;20035;-76
2022/01/20 07:09:14;;;;;;;8.45;1.73;;;;;;;1.93;90.22;101163.53;4917769;29;20065;-76
2022/01/20 07:11:39;;;;;;;6.47;0.80;;;;;;;1.93;89.80;101164.38;4916632;29;20044;-77
2022/01/20 07:14:07;;;;;;;9.85;1.33;;;;;;;1.92;89.55;101167.16;4916355;29;20112;-76
2022/01/20 07:16:34;;;;;;;5.68;1.10;;;;;;;1.90;89.63;101179.75;4917492;29;20087;-76
2022/01/20 07:18:59;;;;;;;;;;;;;;;1.90;89.13;101177.94;4917699;29;20047;-76
2022/01/20 07:21:25;;;;;;;7.05;0.88;;;;;;;1.92;88.44;101185.78;4915955;29;19910;-76
2022/01/20 07:23:50;;;;;;;4.30;0.70;;;;;;;1.92;88.30;101204.38;4917405;29;20028;-77
2022/01/20 07:26:16;;;;;;;4.43;1.35;;;;;;;1.93;87.82;101206.06;4917862;29;20043;-77
2022/01/20 07:28:42;;;;;;;4.78;1.38;;;;;;;1.92;87.38;101205.22;4915504;29;20032;-77
2022/01/20 07:31:08;;;;;;;8.85;1.38;;;;;;;1.92;87.33;101202.56;4913519;29;20478;-76
2022/01/20 07:33:35;;;;;;;5.70;0.80;;;;;;;1.96;86.96;101206.66;4917138;29;20424;-76
2022/01/20 07:36:00;;;;;;;5.32;1.10;;;;;;;2.01;86.89;101209.75;4917478;29;20079;-76
2022/01/20 07:38:26;;;;;;;5.38;1.58;;;;;;;1.99;85.80;101198.41;4917299;29;20052;-77
2022/01/20 07:40:52;;;;;;;;;;;;;;;1.98;86.08;101207.34;4917680;29;20036;-76
2022/01/20 07:43:18;;;;;;;3.30;1.33;;;;;;;2.03;85.10;101201.63;4917755;29;19982;-77
2022/01/20 07:45:44;;;;;;;4.68;0.82;;;;;;;2.01;84.25;101207.09;4916546;29;20440;-77
2022/01/20 07:48:09;;;;;;;7.68;1.92;;;;;;;2.04;83.13;101219.28;4917876;29;20040;-76
2022/01/20 07:50:35;;;;;;;5.20;0.98;;;;;;;1.98;83.33;101219.78;4917592;29;20111;-76
2022/01/20 07:53:00;;;;;;;5.00;1.38;;;;;;;2.04;82.00;101229.91;4917248;29;20476;-76
2022/01/20 07:55:26;;;;;;;2.13;0.70;;;;;;;2.01;81.33;101230.16;4921299;29;20043;-76
2022/01/20 07:57:51;;;;;;;3.63;0.95;;;;;;;2.05;80.85;101243.06;4925486;29;20063;-76
2022/01/20 08:00:17;;;;;;;5.70;1.73;;;;;;;2.06;80.17;101244.75;4920150;29;20088;-77
2022/01/20 08:02:43;;;;;;;5.82;1.00;;;;;;;2.09;80.88;101249.81;4921265;29;20391;-75
2022/01/20 08:05:09;;;;;;;4.22;1.00;;;;;;;2.07;80.13;101242.94;4921147;29;20032;-77
2022/01/20 08:07:34;;;;;;;3.05;0.70;;;;;;;2.05;78.66;101242.22;4920853;29;20122;-76
2022/01/20 08:10:00;;;;;;;4.70;0.90;;;;;;;2.02;78.47;101240.66;4921215;29;20032;-77
2022/01/20 08:12:27;;;;;;;7.07;1.25;;;;;;;2.03;78.53;101244.16;4920495;29;20091;-77
2022/01/20 08:14:53;;;;;;;4.13;1.00;;;;;;;1.99;79.25;101238.25;4920820;29;20048;-76
2022/01/20 08:17:19;;;;;;;7.18;1.48;;;;;;;2.02;78.37;101240.66;4920105;29;20064;-78
2022/01/20 08:19:44;;;;;;;7.03;0.90;;;;;;;2.02;78.55;101242.47;4919330;29;20033;-78
2022/01/20 08:22:10;;;;;;;4.13;0.45;;;;;;;2.01;78.24;101241.63;4920128;29;20055;-75
2022/01/20 08:24:36;;;;;;;2.30;0.50;;;;;;;2.06;77.82;101239.44;4920152;29;20040;-75
2022/01/20 08:27:01;;;;;;;4.65;0.63;;;;;;;2.13;78.38;101245.09;4919756;29;20108;-75
2022/01/20 08:29:27;;;;;;;2.17;0.65;;;;;;;2.20;77.92;101245.38;4920443;29;20103;-75
2022/01/20 08:31:52;;;;;;;3.13;0.70;;;;;;;2.28;77.48;101253.56;4918643;29;20058;-76
2022/01/20 08:34:17;;;;;;;2.70;0.70;;;;;;;2.34;77.69;101259.19;4920042;29;20079;-77
2022/01/20 08:36:44;;;;;;;3.73;0.87;;;;;;;2.32;77.17;101269.16;4920118;29;20463;-77
2022/01/20 08:39:26;;;;;;;6.20;0.82;;;;;;;2.31;77.37;101256.81;4920003;29;20340;-76
2022/01/20 08:41:52;;;;;;;5.68;1.60;;;;;;;2.30;77.48;101262.25;4920308;29;20059;-76
2022/01/20 08:44:18;;;;;;;7.13;1.42;;;;;;;2.31;78.30;101270.13;4919962;29;20475;-76
2022/01/20 08:46:43;;;;;;;;;;;;;;;2.30;77.54;101262.25;4920381;29;20064;-76
2022/01/20 08:49:09;;;;;;;7.38;1.83;;;;;;;2.27;78.17;101271.34;4919732;29;19957;-76
2022/01/20 08:51:34;;;;;;;3.67;0.88;;;;;;;2.35;78.60;101276.84;4920295;29;20056;-76
2022/01/20 08:53:59;;;;;;;3.65;0.68;;;;;;;2.47;79.74;101272.31;4918936;29;20039;-76
2022/01/20 08:56:25;;;;;;;9.27;1.00;;;;;;;2.42;78.04;101279.81;4919866;29;20039;-76
2022/01/20 08:58:50;;;;;;;6.35;0.85;;;;;;;2.36;77.51;101275.00;4919619;29;20056;-76
2022/01/20 09:01:15;;;;;;;6.10;0.82;;;;;;;2.36;78.25;101278.53;4919569;29;20051;-76
2022/01/20 09:03:42;;;;;;;3.63;1.08;;;;;;;2.38;77.85;101281.06;4919804;29;20131;-76
2022/01/20 09:06:08;;;;;;;3.15;1.08;;;;;;;2.42;78.01;101285.97;4919604;29;20056;-76
2022/01/20 09:08:35;;;;;;;6.43;1.45;;;;;;;2.40;78.24;101289.75;4919929;29;20028;-76
2022/01/20 09:11:01;;;;;;;7.55;2.10;;;;;;;2.43;78.40;101290.34;4917467;29;20056;-76
2022/01/20 09:16:11;;;;;;;8.15;1.75;;;;;;;2.29;79.91;101303.97;4919671;29;20083;-76
2022/01/20 09:18:37;;;;;;;4.55;0.95;;;;;;;2.24;80.82;101306.16;4919532;29;20036;-76
2022/01/20 09:21:03;;;;;;;4.32;0.90;;;;;;;2.19;80.20;101292.41;4919395;29;20032;-75
2022/01/20 09:23:30;;;;;;;5.53;1.15;;;;;;;2.20;80.48;101291.44;4919146;29;20087;-76
2022/01/20 09:25:55;;;;;;;4.82;1.70;;;;;;;2.24;80.56;101295.53;4919366;29;20050;-76
2022/01/20 09:28:21;;;;;;;8.68;1.80;;;;;;;2.27;80.24;101300.59;4918841;29;20111;-77
2022/01/20 09:30:48;;;;;;;4.53;0.93;;;;;;;2.26;78.20;101301.56;4919375;29;20561;-76
2022/01/20 09:33:17;;;;;;;3.90;1.35;;;;;;;2.23;77.36;101307.13;4919308;29;20436;-76
2022/01/20 09:35:44;;;;;;;5.25;1.10;;;;;;;2.20;77.34;101307.38;4918016;29;20110;-77
2022/01/20 09:38:11;;;;;;;5.22;1.23;;;;;;;2.27;78.68;101308.56;4919042;29;20047;-77
2022/01/20 09:40:37;;;;;;;4.30;1.42;;;;;;;2.26;77.97;101303.38;4918330;29;20092;-76
2022/01/20 09:43:04;;;;;;;5.45;1.27;;;;;;;2.26;77.95;101301.56;4919724;29;20040;-76
2022/01/20 09:45:30;;;;;;;6.47;0.98;;;;;;;2.27;78.27;101305.91;4919201;29;20028;-76
2022/01/20 09:47:56;;;;;;;7.13;1.17;;;;;;;2.27;78.06;101305.91;4918953;29;20028;-77
2022/01/20 09:50:23;;;;;;;5.88;1.83;;;;;;;2.29;78.12;101311.94;4917661;29;20032;-76
2022/01/20 09:52:50;;;;;;;4.85;0.95;;;;;;;2.33;78.32;101316.00;4918352;29;20406;-78
2022/01/20 09:55:17;;;;;;;3.58;0.75;;;;;;;2.26;76.95;101322.84;4919819;29;20036;-77
2022/01/20 09:57:42;;;;;;;3.80;1.15;;;;;;;2.26;78.15;101330.81;4919361;29;20052;-77
2022/01/20 10:00:12;;;;;;;5.55;1.42;;;;;;;2.24;78.03;101335.41;4919259;29;20042;-78
2022/01/20 10:03:07;;;;;;;9.63;1.13;;;;;;;2.18;76.83;101340.38;4924936;29;20376;-78
2022/01/20 10:05:37;;;;;;;3.58;0.80;;;;;;;2.18;77.16;101351.03;4922590;29;20043;-76
2022/01/20 10:08:16;;;;;;;3.63;0.77;;;;;;;2.15;77.89;101353.97;4921432;29;20051;-78
2022/01/20 10:11:05;;;;;;;5.28;0.90;;;;;;;2.08;77.83;101350.97;4920192;29;20036;-77
2022/01/20 10:13:35;;;;;;;12.05;1.30;;;;;;;2.16;78.53;101359.13;4918410;29;20036;-74
2022/01/20 10:16:04;;;;;;;8.73;1.25;;;;;;;2.17;78.29;101347.53;4918196;29;20028;-74
2022/01/20 10:18:32;;;;;;;8.18;1.15;;;;;;;2.17;78.25;101358.16;4918737;29;20451;-77
2022/01/20 10:21:04;;;;;;;13.45;1.27;;;;;;;2.19;78.32;101355.38;4918166;29;20032;-77
2022/01/20 10:23:35;;;;;;;3.30;1.48;;;;;;;2.21;78.36;101351.63;4916863;29;20115;-76
2022/01/20 10:26:06;;;;;;;7.65;1.08;;;;;;;2.20;77.81;101346.44;4918223;29;20032;-75
2022/01/20 10:29:01;;;;;;;2.80;1.10;;;;;;;2.19;78.12;101358.88;4918365;29;20071;-75
2022/01/20 10:31:46;;;;;;;6.20;0.98;;;;;;;2.28;77.98;101355.47;4917849;29;20046;-77
2022/01/20 10:34:35;;;;;;;4.63;0.60;;;;;;;2.33;78.79;101360.41;4917707;29;20383;-76
2022/01/20 10:37:06;;;;;;;5.88;1.33;;;;;;;2.38;77.55;101371.47;4916744;29;20434;-76
2022/01/20 10:39:37;;;;;;;9.32;1.15;;;;;;;2.41;77.05;101377.38;4917371;29;20176;-77
2022/01/20 10:42:08;;;;;;;7.05;1.20;;;;;;;2.39;77.58;101384.66;4917914;29;20071;-76
2022/01/20 10:44:52;;;;;;;1.75;0.60;;;;;;;2.48;77.47;101390.19;4917466;29;20460;-76
2022/01/20 10:47:21;;;;;;;5.35;1.42;;;;;;;2.47;76.79;101392.00;4916487;29;20036;-76
2022/01/20 10:49:48;;;;;;;7.97;1.48;;;;;;;2.50;76.79;101391.75;4916415;29;20379;-75
2022/01/20 10:52:18;;;;;;;6.10;1.23;;;;;;;2.49;76.00;101386.56;4917730;29;20091;-78
2022/01/20 10:54:47;;;;;;;6.32;1.50;;;;;;;2.53;75.79;101387.97;4916988;29;20475;-77
2022/01/20 10:57:17;;;;;;;4.32;0.93;;;;;;;2.57;76.23;101392.06;4917403;29;20519;-77
2022/01/20 10:59:51;;;;;;;8.38;2.05;;;;;;;2.66;76.13;101391.28;4917445;29;20036;-77
2022/01/20 11:02:19;;;;;;;2.45;0.90;;;;;;;2.64;75.00;101387.91;4917370;29;20095;-76
2022/01/20 11:04:45;;;;;;;2.67;0.90;;;;;;;2.57;74.04;101378.75;4917734;29;20123;-76
2022/01/20 11:07:10;;;;;;;3.92;0.82;;;;;;;2.55;75.17;101376.22;4917865;29;20039;-77
2022/01/20 11:09:42;;;;;;;2.63;0.70;;;;;;;2.65;75.87;101371.81;4916330;29;20051;-76
2022/01/20 11:12:12;;;;;;;6.28;0.90;;;;;;;2.64;74.97;101378.13;4915760;29;20039;-76
2022/01/20 11:14:38;;;;;;;6.25;0.90;;;;;;;2.65;74.15;101369.16;4918122;29;20390;-77
2022/01/20 11:17:04;;;;;;;9.23;1.58;;;;;;;2.55;74.21;101367.41;4918240;29;20467;-76
2022/01/20 11:19:37;;;;;;;8.60;1.88;;;;;;;2.52;74.71;101359.66;4917339;29;20040;-80
2022/01/20 11:22:08;;;;;;;9.48;1.30;;;;;;;2.56;75.50;101361.94;4917408;29;20036;-74
2022/01/20 11:24:36;;;;;;;7.70;1.00;;;;;;;2.56;75.03;101372.59;4917333;29;20036;-75
2022/01/20 11:27:03;;;;;;;6.53;1.30;;;;;;;2.60;75.15;101370.53;4916645;29;20028;-74
2022/01/20 11:29:47;;;;;;;10.68;1.02;;;;;;;2.55;75.02;101367.41;4916729;29;20098;-76
2022/01/20 11:32:18;;;;;;;2.95;1.00;;;;;;;2.51;75.00;101366.81;4917155;29;20039;-76
2022/01/20 11:35:18;;;;;;;5.47;1.17;;;;;;;2.60;74.48;101359.88;4916257;29;20424;-76
2022/01/20 11:37:56;;;;;;;6.75;2.15;;;;;;;2.69;74.25;101359.06;4906485;29;20044;-77
2022/01/20 11:40:23;;;;;;;6.20;1.00;;;;;;;2.75;72.92;101353.25;4916706;29;20048;-76
2022/01/20 11:43:04;;;;;;;4.20;1.27;;;;;;;2.76;71.25;101357.59;4916999;29;20044;-75
2022/01/20 11:45:36;;;;;;;2.63;0.77;;;;;;;2.78;71.13;101350.31;4917128;29;20460;-77
2022/01/20 11:48:15;;;;;;;4.75;1.40;;;;;;;2.84;71.54;101348.97;4917022;29;20028;-75
2022/01/20 11:50:43;;;;;;;5.53;0.85;;;;;;;2.98;71.71;101357.44;4916846;29;20413;-76
2022/01/20 11:53:20;;;;;;;4.18;0.80;;;;;;;3.11;72.04;101352.72;4916561;29;20040;-76
2022/01/20 11:55:51;;;;;;;5.18;1.20;;;;;;;3.17;71.29;101350.50;4915575;29;20479;-76
2022/01/20 11:58:22;;;;;;;2.65;0.52;;;;;;;3.25;71.77;101353.31;4916187;29;20507;-75
2022/01/20 12:01:00;;;;;;;7.78;1.27;;;;;;;3.36;70.59;101343.41;4915643;29;20037;-76
2022/01/20 12:03:26;;;;;;;4.03;0.88;;;;;;;3.52;69.83;101337.56;4917138;29;20080;-77
2022/01/20 12:06:25;;;;;;;6.50;1.45;;;;;;;3.41;69.43;101337.66;4916861;29;20122;-76
2022/01/20 12:09:03;;;;;;;6.95;0.98;;;;;;;3.24;69.89;101327.66;4905902;29;20047;-76
2022/01/20 12:11:40;;;;;;;3.00;0.98;;;;;;;3.31;70.89;101329.66;4916665;29;20047;-75
2022/01/20 12:14:07;;;;;;;7.10;1.33;;;;;;;3.22;70.08;101319.84;4916568;29;20126;-76
2022/01/20 12:16:34;;;;;;;5.97;0.98;;;;;;;3.16;70.61;101319.53;4916520;29;20535;-75
2022/01/20 12:19:00;;;;;;;3.33;0.93;;;;;;;3.17;71.81;101316.72;4916550;29;20036;-75
2022/01/20 12:21:28;;;;;;;6.30;1.45;;;;;;;3.12;72.09;101325.09;4916414;29;20486;-76
2022/01/20 12:23:55;;;;;;;3.17;1.00;;;;;;;3.06;71.94;101322.13;4916477;29;20155;-76
2022/01/20 12:26:20;;;;;;;5.47;1.30;;;;;;;3.04;71.39;101335.59;4916952;29;20036;-76
2022/01/20 12:28:46;;;;;;;2.53;0.70;;;;;;;3.21;71.17;101333.28;4916644;29;20032;-75
2022/01/20 12:31:13;;;;;;;5.13;1.27;;;;;;;3.05;71.87;101347.06;4917181;29;20052;-77
2022/01/20 12:33:45;;;;;;;5.53;1.35;;;;;;;2.93;72.54;101337.50;4916740;29;20036;-76
2022/01/20 12:36:16;;;;;;;7.82;1.55;;;;;;;2.95;73.84;101341.72;4916714;29;20028;-76
2022/01/20 12:38:44;;;;;;;5.07;0.85;;;;;;;2.96;74.43;101346.06;4917087;29;20415;-76
2022/01/20 12:41:22;;;;;;;5.68;1.13;;;;;;;2.94;75.20;101337.38;4917416;29;20058;-76